sensor_id;sensor_type;location;lat;lon;timestamp;P1;durP1;ratioP1;P2;durP2;ratioP2
74102;SDS011;62853;46.166;3.640;2024-01-07T00:01:00;12.45;;;8.35;;
74102;SDS011;62853;46.166;3.640;2024-01-07T00:03:25;10.43;;;7.65;;
74102;SDS011;62853;46.166;3.640;2024-01-07T00:05:51;11.70;;;8.15;;
74102;SDS011;62853;46.166;3.640;2024-01-07T00:08:16;12.65;;;8.25;;
74102;SDS011;62853;46.166;3.640;2024-01-07T00:10:41;14.63;;;9.07;;
74102;SDS011;62853;46.166;3.640;2024-01-07T00:13:07;13.95;;;8.32;;
74102;SDS011;62853;46.166;3.640;2024-01-07T00:15:32;13.50;;;8.68;;
74102;SDS011;62853;46.166;3.640;2024-01-07T00:17:58;12.98;;;8.15;;
74102;SDS011;62853;46.166;3.640;2024-01-07T00:20:23;13.20;;;8.38;;
74102;SDS011;62853;46.166;3.640;2024-01-07T00:22:48;14.30;;;9.07;;
74102;SDS011;62853;46.166;3.640;2024-01-07T00:25:14;13.70;;;8.68;;
74102;SDS011;62853;46.166;3.640;2024-01-07T00:27:39;11.77;;;7.97;;
74102;SDS011;62853;46.166;3.640;2024-01-07T00:30:05;14.00;;;8.63;;
74102;SDS011;62853;46.166;3.640;2024-01-07T00:32:30;13.57;;;8.60;;
74102;SDS011;62853;46.166;3.640;2024-01-07T00:34:56;14.20;;;9.15;;
74102;SDS011;62853;46.166;3.640;2024-01-07T00:37:21;14.60;;;8.93;;
74102;SDS011;62853;46.166;3.640;2024-01-07T00:39:46;12.68;;;8.23;;
74102;SDS011;62853;46.166;3.640;2024-01-07T00:42:12;14.18;;;9.23;;
74102;SDS011;62853;46.166;3.640;2024-01-07T00:44:37;12.95;;;8.98;;
74102;SDS011;62853;46.166;3.640;2024-01-07T00:47:03;14.20;;;8.70;;
74102;SDS011;62853;46.166;3.640;2024-01-07T00:49:28;12.52;;;8.57;;
74102;SDS011;62853;46.166;3.640;2024-01-07T00:51:53;12.43;;;8.07;;
74102;SDS011;62853;46.166;3.640;2024-01-07T00:54:19;13.50;;;8.40;;
74102;SDS011;62853;46.166;3.640;2024-01-07T00:56:45;14.75;;;8.90;;
74102;SDS011;62853;46.166;3.640;2024-01-07T00:59:10;15.57;;;9.38;;
74102;SDS011;62853;46.166;3.640;2024-01-07T01:01:37;13.02;;;8.50;;
74102;SDS011;62853;46.166;3.640;2024-01-07T01:04:02;13.80;;;8.38;;
74102;SDS011;62853;46.166;3.640;2024-01-07T01:06:28;13.60;;;8.68;;
74102;SDS011;62853;46.166;3.640;2024-01-07T01:08:53;15.13;;;9.38;;
74102;SDS011;62853;46.166;3.640;2024-01-07T01:11:18;14.98;;;8.60;;
74102;SDS011;62853;46.166;3.640;2024-01-07T01:13:44;16.95;;;9.55;;
74102;SDS011;62853;46.166;3.640;2024-01-07T01:16:09;15.30;;;8.93;;
74102;SDS011;62853;46.166;3.640;2024-01-07T01:18:34;15.20;;;8.95;;
74102;SDS011;62853;46.166;3.640;2024-01-07T01:21:00;14.02;;;9.00;;
74102;SDS011;62853;46.166;3.640;2024-01-07T01:23:25;14.35;;;9.43;;
74102;SDS011;62853;46.166;3.640;2024-01-07T01:25:51;15.95;;;9.68;;
74102;SDS011;62853;46.166;3.640;2024-01-07T01:28:16;14.95;;;9.30;;
74102;SDS011;62853;46.166;3.640;2024-01-07T01:30:41;15.43;;;9.48;;
74102;SDS011;62853;46.166;3.640;2024-01-07T01:33:07;14.30;;;9.35;;
74102;SDS011;62853;46.166;3.640;2024-01-07T01:35:32;15.07;;;9.30;;
74102;SDS011;62853;46.166;3.640;2024-01-07T01:37:58;16.40;;;9.88;;
74102;SDS011;62853;46.166;3.640;2024-01-07T01:40:23;14.90;;;9.63;;
74102;SDS011;62853;46.166;3.640;2024-01-07T01:42:48;14.90;;;9.23;;
74102;SDS011;62853;46.166;3.640;2024-01-07T01:45:14;15.30;;;9.32;;
74102;SDS011;62853;46.166;3.640;2024-01-07T01:47:40;13.07;;;8.65;;
74102;SDS011;62853;46.166;3.640;2024-01-07T01:50:06;14.43;;;9.35;;
74102;SDS011;62853;46.166;3.640;2024-01-07T01:52:32;13.73;;;8.73;;
74102;SDS011;62853;46.166;3.640;2024-01-07T01:54:58;14.57;;;10.25;;
74102;SDS011;62853;46.166;3.640;2024-01-07T01:57:24;14.25;;;9.15;;
74102;SDS011;62853;46.166;3.640;2024-01-07T01:59:57;15.55;;;9.40;;
74102;SDS011;62853;46.166;3.640;2024-01-07T02:02:27;14.32;;;8.85;;
74102;SDS011;62853;46.166;3.640;2024-01-07T02:04:53;14.70;;;8.85;;
74102;SDS011;62853;46.166;3.640;2024-01-07T02:07:19;14.85;;;9.35;;
74102;SDS011;62853;46.166;3.640;2024-01-07T02:09:44;16.25;;;9.80;;
74102;SDS011;62853;46.166;3.640;2024-01-07T02:12:10;13.68;;;8.50;;
74102;SDS011;62853;46.166;3.640;2024-01-07T02:14:36;17.27;;;10.38;;
74102;SDS011;62853;46.166;3.640;2024-01-07T02:17:02;16.65;;;9.88;;
74102;SDS011;62853;46.166;3.640;2024-01-07T02:19:28;14.10;;;9.35;;
74102;SDS011;62853;46.166;3.640;2024-01-07T02:21:53;17.08;;;10.02;;
74102;SDS011;62853;46.166;3.640;2024-01-07T02:24:19;16.42;;;9.95;;
74102;SDS011;62853;46.166;3.640;2024-01-07T02:26:44;16.15;;;10.60;;
74102;SDS011;62853;46.166;3.640;2024-01-07T02:29:10;16.42;;;9.80;;
74102;SDS011;62853;46.166;3.640;2024-01-07T02:31:35;18.58;;;10.80;;
74102;SDS011;62853;46.166;3.640;2024-01-07T02:34:00;16.38;;;9.73;;
74102;SDS011;62853;46.166;3.640;2024-01-07T02:36:26;14.95;;;9.43;;
74102;SDS011;62853;46.166;3.640;2024-01-07T02:38:51;15.32;;;9.40;;
74102;SDS011;62853;46.166;3.640;2024-01-07T02:41:16;16.48;;;10.18;;
74102;SDS011;62853;46.166;3.640;2024-01-07T02:43:42;16.30;;;10.18;;
74102;SDS011;62853;46.166;3.640;2024-01-07T02:46:08;16.25;;;10.30;;
74102;SDS011;62853;46.166;3.640;2024-01-07T02:48:33;16.63;;;10.25;;
74102;SDS011;62853;46.166;3.640;2024-01-07T02:50:59;16.60;;;10.13;;
74102;SDS011;62853;46.166;3.640;2024-01-07T02:53:24;16.13;;;10.07;;
74102;SDS011;62853;46.166;3.640;2024-01-07T02:55:49;16.02;;;10.85;;
74102;SDS011;62853;46.166;3.640;2024-01-07T02:58:15;16.38;;;10.52;;
74102;SDS011;62853;46.166;3.640;2024-01-07T03:00:40;15.85;;;10.45;;
74102;SDS011;62853;46.166;3.640;2024-01-07T03:03:06;18.65;;;10.45;;
74102;SDS011;62853;46.166;3.640;2024-01-07T03:05:31;15.57;;;9.93;;
74102;SDS011;62853;46.166;3.640;2024-01-07T03:07:58;16.92;;;10.13;;
74102;SDS011;62853;46.166;3.640;2024-01-07T03:10:25;18.13;;;10.95;;
74102;SDS011;62853;46.166;3.640;2024-01-07T03:12:50;16.15;;;10.27;;
74102;SDS011;62853;46.166;3.640;2024-01-07T03:15:15;15.55;;;10.02;;
74102;SDS011;62853;46.166;3.640;2024-01-07T03:17:41;17.88;;;10.70;;
74102;SDS011;62853;46.166;3.640;2024-01-07T03:20:06;17.20;;;11.40;;
74102;SDS011;62853;46.166;3.640;2024-01-07T03:22:32;16.27;;;9.77;;
74102;SDS011;62853;46.166;3.640;2024-01-07T03:24:58;17.38;;;10.07;;
74102;SDS011;62853;46.166;3.640;2024-01-07T03:27:23;17.10;;;10.65;;
74102;SDS011;62853;46.166;3.640;2024-01-07T03:29:48;17.13;;;10.32;;
74102;SDS011;62853;46.166;3.640;2024-01-07T03:32:14;16.13;;;10.18;;
74102;SDS011;62853;46.166;3.640;2024-01-07T03:34:39;18.77;;;11.20;;
74102;SDS011;62853;46.166;3.640;2024-01-07T03:37:05;20.08;;;11.52;;
74102;SDS011;62853;46.166;3.640;2024-01-07T03:39:33;19.25;;;10.57;;
74102;SDS011;62853;46.166;3.640;2024-01-07T03:41:59;19.08;;;10.98;;
74102;SDS011;62853;46.166;3.640;2024-01-07T03:44:24;22.23;;;12.20;;
74102;SDS011;62853;46.166;3.640;2024-01-07T03:46:50;18.02;;;11.00;;
74102;SDS011;62853;46.166;3.640;2024-01-07T03:49:16;18.98;;;10.93;;
74102;SDS011;62853;46.166;3.640;2024-01-07T03:51:42;21.75;;;11.75;;
74102;SDS011;62853;46.166;3.640;2024-01-07T03:54:08;20.42;;;12.02;;
74102;SDS011;62853;46.166;3.640;2024-01-07T03:56:34;18.55;;;10.95;;
74102;SDS011;62853;46.166;3.640;2024-01-07T03:58:59;18.65;;;10.80;;
74102;SDS011;62853;46.166;3.640;2024-01-07T04:01:24;19.42;;;11.40;;
74102;SDS011;62853;46.166;3.640;2024-01-07T04:03:50;21.20;;;12.27;;
74102;SDS011;62853;46.166;3.640;2024-01-07T04:06:15;20.02;;;11.95;;
74102;SDS011;62853;46.166;3.640;2024-01-07T04:08:41;20.15;;;11.70;;
74102;SDS011;62853;46.166;3.640;2024-01-07T04:11:06;19.25;;;10.73;;
74102;SDS011;62853;46.166;3.640;2024-01-07T04:13:31;18.92;;;11.82;;
74102;SDS011;62853;46.166;3.640;2024-01-07T04:15:57;19.58;;;11.65;;
74102;SDS011;62853;46.166;3.640;2024-01-07T04:18:22;18.63;;;11.35;;
74102;SDS011;62853;46.166;3.640;2024-01-07T04:20:47;22.40;;;12.57;;
74102;SDS011;62853;46.166;3.640;2024-01-07T04:23:13;19.30;;;10.77;;
74102;SDS011;62853;46.166;3.640;2024-01-07T04:25:38;20.80;;;12.00;;
74102;SDS011;62853;46.166;3.640;2024-01-07T04:28:05;20.02;;;11.52;;
74102;SDS011;62853;46.166;3.640;2024-01-07T04:30:31;20.63;;;11.52;;
74102;SDS011;62853;46.166;3.640;2024-01-07T04:32:57;19.17;;;11.60;;
74102;SDS011;62853;46.166;3.640;2024-01-07T04:35:22;17.75;;;10.77;;
74102;SDS011;62853;46.166;3.640;2024-01-07T04:37:47;18.52;;;10.98;;
74102;SDS011;62853;46.166;3.640;2024-01-07T04:40:13;17.50;;;10.90;;
74102;SDS011;62853;46.166;3.640;2024-01-07T04:42:38;19.20;;;11.38;;
74102;SDS011;62853;46.166;3.640;2024-01-07T04:45:04;19.20;;;11.25;;
74102;SDS011;62853;46.166;3.640;2024-01-07T04:47:30;17.65;;;10.90;;
74102;SDS011;62853;46.166;3.640;2024-01-07T04:49:57;17.55;;;10.90;;
74102;SDS011;62853;46.166;3.640;2024-01-07T04:52:22;18.55;;;10.80;;
74102;SDS011;62853;46.166;3.640;2024-01-07T04:54:50;17.45;;;11.07;;
74102;SDS011;62853;46.166;3.640;2024-01-07T04:57:18;18.15;;;11.68;;
74102;SDS011;62853;46.166;3.640;2024-01-07T04:59:44;17.73;;;11.10;;
74102;SDS011;62853;46.166;3.640;2024-01-07T05:02:10;17.90;;;11.40;;
74102;SDS011;62853;46.166;3.640;2024-01-07T05:04:36;18.77;;;10.75;;
74102;SDS011;62853;46.166;3.640;2024-01-07T05:07:02;19.17;;;10.90;;
74102;SDS011;62853;46.166;3.640;2024-01-07T05:09:27;19.55;;;11.30;;
74102;SDS011;62853;46.166;3.640;2024-01-07T05:11:53;21.88;;;12.43;;
74102;SDS011;62853;46.166;3.640;2024-01-07T05:14:18;19.88;;;12.13;;
74102;SDS011;62853;46.166;3.640;2024-01-07T05:16:43;16.42;;;10.30;;
74102;SDS011;62853;46.166;3.640;2024-01-07T05:19:09;19.27;;;11.05;;
74102;SDS011;62853;46.166;3.640;2024-01-07T05:21:34;17.80;;;11.52;;
74102;SDS011;62853;46.166;3.640;2024-01-07T05:24:00;18.70;;;10.90;;
74102;SDS011;62853;46.166;3.640;2024-01-07T05:26:25;17.42;;;10.63;;
74102;SDS011;62853;46.166;3.640;2024-01-07T05:28:50;18.98;;;11.15;;
74102;SDS011;62853;46.166;3.640;2024-01-07T05:31:16;18.33;;;10.43;;
74102;SDS011;62853;46.166;3.640;2024-01-07T05:33:45;15.68;;;10.32;;
74102;SDS011;62853;46.166;3.640;2024-01-07T05:36:14;16.23;;;9.57;;
74102;SDS011;62853;46.166;3.640;2024-01-07T05:38:42;15.48;;;9.70;;
74102;SDS011;62853;46.166;3.640;2024-01-07T05:41:08;17.15;;;10.40;;
74102;SDS011;62853;46.166;3.640;2024-01-07T05:43:35;14.98;;;9.40;;
74102;SDS011;62853;46.166;3.640;2024-01-07T05:46:01;16.40;;;10.57;;
74102;SDS011;62853;46.166;3.640;2024-01-07T05:48:26;16.55;;;10.65;;
74102;SDS011;62853;46.166;3.640;2024-01-07T05:50:51;17.00;;;10.23;;
74102;SDS011;62853;46.166;3.640;2024-01-07T05:53:17;16.42;;;10.05;;
74102;SDS011;62853;46.166;3.640;2024-01-07T05:55:42;16.13;;;9.98;;
74102;SDS011;62853;46.166;3.640;2024-01-07T05:58:08;14.30;;;9.43;;
74102;SDS011;62853;46.166;3.640;2024-01-07T06:00:33;13.45;;;8.52;;
74102;SDS011;62853;46.166;3.640;2024-01-07T06:02:58;14.95;;;9.30;;
74102;SDS011;62853;46.166;3.640;2024-01-07T06:05:24;14.57;;;9.43;;
74102;SDS011;62853;46.166;3.640;2024-01-07T06:07:49;15.15;;;9.82;;
74102;SDS011;62853;46.166;3.640;2024-01-07T06:10:15;13.35;;;8.85;;
74102;SDS011;62853;46.166;3.640;2024-01-07T06:12:40;13.80;;;8.55;;
74102;SDS011;62853;46.166;3.640;2024-01-07T06:15:06;14.25;;;9.15;;
74102;SDS011;62853;46.166;3.640;2024-01-07T06:17:31;12.05;;;8.50;;
74102;SDS011;62853;46.166;3.640;2024-01-07T06:19:57;14.85;;;9.00;;
74102;SDS011;62853;46.166;3.640;2024-01-07T06:22:22;14.02;;;8.50;;
74102;SDS011;62853;46.166;3.640;2024-01-07T06:24:48;14.10;;;9.10;;
74102;SDS011;62853;46.166;3.640;2024-01-07T06:27:13;13.18;;;8.18;;
74102;SDS011;62853;46.166;3.640;2024-01-07T06:29:39;13.20;;;8.68;;
74102;SDS011;62853;46.166;3.640;2024-01-07T06:32:04;13.05;;;8.60;;
74102;SDS011;62853;46.166;3.640;2024-01-07T06:34:29;12.23;;;8.23;;
74102;SDS011;62853;46.166;3.640;2024-01-07T06:36:55;14.98;;;9.30;;
74102;SDS011;62853;46.166;3.640;2024-01-07T06:39:20;13.60;;;8.38;;
74102;SDS011;62853;46.166;3.640;2024-01-07T06:41:46;13.65;;;8.70;;
74102;SDS011;62853;46.166;3.640;2024-01-07T06:44:11;13.07;;;8.90;;
74102;SDS011;62853;46.166;3.640;2024-01-07T06:46:37;12.48;;;8.50;;
74102;SDS011;62853;46.166;3.640;2024-01-07T06:49:02;11.93;;;8.05;;
74102;SDS011;62853;46.166;3.640;2024-01-07T06:51:28;12.00;;;7.82;;
74102;SDS011;62853;46.166;3.640;2024-01-07T06:53:53;12.88;;;8.20;;
74102;SDS011;62853;46.166;3.640;2024-01-07T06:56:18;13.25;;;8.70;;
74102;SDS011;62853;46.166;3.640;2024-01-07T06:58:44;12.70;;;8.43;;
74102;SDS011;62853;46.166;3.640;2024-01-07T07:01:10;11.65;;;7.93;;
74102;SDS011;62853;46.166;3.640;2024-01-07T07:03:36;12.02;;;8.32;;
74102;SDS011;62853;46.166;3.640;2024-01-07T07:06:02;12.35;;;7.75;;
74102;SDS011;62853;46.166;3.640;2024-01-07T07:08:27;11.82;;;7.88;;
74102;SDS011;62853;46.166;3.640;2024-01-07T07:10:52;11.20;;;8.10;;
74102;SDS011;62853;46.166;3.640;2024-01-07T07:13:18;13.55;;;8.02;;
74102;SDS011;62853;46.166;3.640;2024-01-07T07:15:43;12.02;;;7.95;;
74102;SDS011;62853;46.166;3.640;2024-01-07T07:18:08;10.32;;;7.53;;
74102;SDS011;62853;46.166;3.640;2024-01-07T07:20:34;11.32;;;8.35;;
74102;SDS011;62853;46.166;3.640;2024-01-07T07:22:59;11.05;;;7.50;;
74102;SDS011;62853;46.166;3.640;2024-01-07T07:25:24;11.20;;;7.80;;
74102;SDS011;62853;46.166;3.640;2024-01-07T07:27:50;11.25;;;7.65;;
74102;SDS011;62853;46.166;3.640;2024-01-07T07:30:15;13.07;;;8.10;;
74102;SDS011;62853;46.166;3.640;2024-01-07T07:32:41;10.55;;;7.40;;
74102;SDS011;62853;46.166;3.640;2024-01-07T07:35:06;11.95;;;7.50;;
74102;SDS011;62853;46.166;3.640;2024-01-07T07:37:32;12.63;;;8.13;;
74102;SDS011;62853;46.166;3.640;2024-01-07T07:39:58;11.32;;;7.72;;
74102;SDS011;62853;46.166;3.640;2024-01-07T07:42:23;11.43;;;7.53;;
74102;SDS011;62853;46.166;3.640;2024-01-07T07:44:49;12.07;;;7.90;;
74102;SDS011;62853;46.166;3.640;2024-01-07T07:47:14;11.15;;;7.75;;
74102;SDS011;62853;46.166;3.640;2024-01-07T07:49:39;10.75;;;7.88;;
74102;SDS011;62853;46.166;3.640;2024-01-07T07:52:06;12.27;;;8.07;;
74102;SDS011;62853;46.166;3.640;2024-01-07T07:54:33;13.05;;;8.07;;
74102;SDS011;62853;46.166;3.640;2024-01-07T07:56:58;10.77;;;7.22;;
74102;SDS011;62853;46.166;3.640;2024-01-07T07:59:24;10.90;;;7.60;;
74102;SDS011;62853;46.166;3.640;2024-01-07T08:01:49;11.27;;;7.80;;
74102;SDS011;62853;46.166;3.640;2024-01-07T08:04:15;10.25;;;7.32;;
74102;SDS011;62853;46.166;3.640;2024-01-07T08:06:40;11.95;;;7.68;;
74102;SDS011;62853;46.166;3.640;2024-01-07T08:09:07;9.32;;;7.18;;
74102;SDS011;62853;46.166;3.640;2024-01-07T08:11:33;12.52;;;7.85;;
74102;SDS011;62853;46.166;3.640;2024-01-07T08:13:59;11.32;;;8.10;;
74102;SDS011;62853;46.166;3.640;2024-01-07T08:16:26;11.32;;;7.43;;
74102;SDS011;62853;46.166;3.640;2024-01-07T08:18:51;9.88;;;6.65;;
74102;SDS011;62853;46.166;3.640;2024-01-07T08:21:17;10.18;;;7.38;;
74102;SDS011;62853;46.166;3.640;2024-01-07T08:23:42;11.05;;;7.20;;
74102;SDS011;62853;46.166;3.640;2024-01-07T08:26:07;10.82;;;7.15;;
74102;SDS011;62853;46.166;3.640;2024-01-07T08:28:33;10.57;;;7.25;;
74102;SDS011;62853;46.166;3.640;2024-01-07T08:30:58;11.02;;;7.30;;
74102;SDS011;62853;46.166;3.640;2024-01-07T08:33:24;10.93;;;6.90;;
74102;SDS011;62853;46.166;3.640;2024-01-07T08:35:49;10.30;;;6.97;;
74102;SDS011;62853;46.166;3.640;2024-01-07T08:38:14;11.77;;;7.65;;
74102;SDS011;62853;46.166;3.640;2024-01-07T08:40:40;11.90;;;8.02;;
74102;SDS011;62853;46.166;3.640;2024-01-07T08:43:05;12.02;;;7.35;;
74102;SDS011;62853;46.166;3.640;2024-01-07T08:45:31;9.40;;;6.90;;
74102;SDS011;62853;46.166;3.640;2024-01-07T08:47:56;10.60;;;7.40;;
74102;SDS011;62853;46.166;3.640;2024-01-07T08:50:21;11.60;;;7.28;;
74102;SDS011;62853;46.166;3.640;2024-01-07T08:52:47;10.35;;;7.53;;
74102;SDS011;62853;46.166;3.640;2024-01-07T08:55:12;11.85;;;8.10;;
74102;SDS011;62853;46.166;3.640;2024-01-07T08:57:38;11.32;;;7.68;;
74102;SDS011;62853;46.166;3.640;2024-01-07T09:00:04;11.57;;;7.65;;
74102;SDS011;62853;46.166;3.640;2024-01-07T09:02:32;10.73;;;6.85;;
74102;SDS011;62853;46.166;3.640;2024-01-07T09:04:58;11.77;;;7.85;;
74102;SDS011;62853;46.166;3.640;2024-01-07T09:07:23;10.75;;;7.63;;
74102;SDS011;62853;46.166;3.640;2024-01-07T09:09:48;11.93;;;7.70;;
74102;SDS011;62853;46.166;3.640;2024-01-07T09:12:14;11.85;;;7.22;;
74102;SDS011;62853;46.166;3.640;2024-01-07T09:14:39;11.05;;;7.50;;
74102;SDS011;62853;46.166;3.640;2024-01-07T09:17:05;10.43;;;7.32;;
74102;SDS011;62853;46.166;3.640;2024-01-07T09:19:30;10.80;;;7.53;;
74102;SDS011;62853;46.166;3.640;2024-01-07T09:21:55;10.70;;;6.90;;
74102;SDS011;62853;46.166;3.640;2024-01-07T09:24:21;11.23;;;7.40;;
74102;SDS011;62853;46.166;3.640;2024-01-07T09:26:46;10.77;;;7.25;;
74102;SDS011;62853;46.166;3.640;2024-01-07T09:29:12;11.05;;;7.32;;
74102;SDS011;62853;46.166;3.640;2024-01-07T09:31:37;11.40;;;7.50;;
74102;SDS011;62853;46.166;3.640;2024-01-07T09:34:02;10.88;;;7.43;;
74102;SDS011;62853;46.166;3.640;2024-01-07T09:36:29;10.65;;;7.25;;
74102;SDS011;62853;46.166;3.640;2024-01-07T09:38:54;11.60;;;7.72;;
74102;SDS011;62853;46.166;3.640;2024-01-07T09:41:20;14.07;;;9.60;;
74102;SDS011;62853;46.166;3.640;2024-01-07T09:43:45;13.15;;;9.32;;
74102;SDS011;62853;46.166;3.640;2024-01-07T09:46:10;14.05;;;9.00;;
74102;SDS011;62853;46.166;3.640;2024-01-07T09:48:36;12.43;;;8.15;;
74102;SDS011;62853;46.166;3.640;2024-01-07T09:51:02;12.15;;;8.18;;
74102;SDS011;62853;46.166;3.640;2024-01-07T09:53:30;13.13;;;8.52;;
74102;SDS011;62853;46.166;3.640;2024-01-07T09:56:16;13.20;;;8.57;;
74102;SDS011;62853;46.166;3.640;2024-01-07T09:58:45;11.45;;;8.15;;
74102;SDS011;62853;46.166;3.640;2024-01-07T10:01:15;11.82;;;7.93;;
74102;SDS011;62853;46.166;3.640;2024-01-07T10:03:40;11.90;;;8.35;;
74102;SDS011;62853;46.166;3.640;2024-01-07T10:06:06;11.25;;;8.40;;
74102;SDS011;62853;46.166;3.640;2024-01-07T10:08:32;11.30;;;8.20;;
74102;SDS011;62853;46.166;3.640;2024-01-07T10:10:57;11.27;;;7.70;;
74102;SDS011;62853;46.166;3.640;2024-01-07T10:13:23;10.52;;;7.93;;
74102;SDS011;62853;46.166;3.640;2024-01-07T10:15:48;13.02;;;8.35;;
74102;SDS011;62853;46.166;3.640;2024-01-07T10:18:14;11.70;;;7.70;;
74102;SDS011;62853;46.166;3.640;2024-01-07T10:20:39;10.15;;;7.75;;
74102;SDS011;62853;46.166;3.640;2024-01-07T10:23:04;11.13;;;7.60;;
74102;SDS011;62853;46.166;3.640;2024-01-07T10:25:31;9.77;;;7.55;;
74102;SDS011;62853;46.166;3.640;2024-01-07T10:28:02;10.52;;;7.47;;
74102;SDS011;62853;46.166;3.640;2024-01-07T10:30:28;11.63;;;7.70;;
74102;SDS011;62853;46.166;3.640;2024-01-07T10:32:57;9.95;;;7.47;;
74102;SDS011;62853;46.166;3.640;2024-01-07T10:35:23;11.07;;;7.53;;
74102;SDS011;62853;46.166;3.640;2024-01-07T10:37:59;10.43;;;7.57;;
74102;SDS011;62853;46.166;3.640;2024-01-07T10:40:26;10.00;;;7.13;;
74102;SDS011;62853;46.166;3.640;2024-01-07T10:42:52;9.38;;;7.25;;
74102;SDS011;62853;46.166;3.640;2024-01-07T10:45:20;10.30;;;6.90;;
74102;SDS011;62853;46.166;3.640;2024-01-07T10:47:48;10.32;;;7.63;;
74102;SDS011;62853;46.166;3.640;2024-01-07T10:50:15;10.35;;;7.25;;
74102;SDS011;62853;46.166;3.640;2024-01-07T10:52:42;10.02;;;6.63;;
74102;SDS011;62853;46.166;3.640;2024-01-07T10:55:09;9.85;;;7.40;;
74102;SDS011;62853;46.166;3.640;2024-01-07T10:57:42;10.00;;;7.13;;
74102;SDS011;62853;46.166;3.640;2024-01-07T11:00:10;9.70;;;6.38;;
74102;SDS011;62853;46.166;3.640;2024-01-07T11:08:34;9.57;;;6.95;;
74102;SDS011;62853;46.166;3.640;2024-01-07T11:10:47;9.48;;;6.38;;
74102;SDS011;62853;46.166;3.640;2024-01-07T11:16:01;9.73;;;6.75;;
74102;SDS011;62853;46.166;3.640;2024-01-07T11:18:27;8.52;;;6.45;;
74102;SDS011;62853;46.166;3.640;2024-01-07T11:21:00;10.38;;;7.13;;
74102;SDS011;62853;46.166;3.640;2024-01-07T11:25:58;8.68;;;6.63;;
74102;SDS011;62853;46.166;3.640;2024-01-07T11:28:42;8.98;;;6.78;;
74102;SDS011;62853;46.166;3.640;2024-01-07T11:31:12;10.07;;;6.97;;
74102;SDS011;62853;46.166;3.640;2024-01-07T11:33:38;10.43;;;7.20;;
74102;SDS011;62853;46.166;3.640;2024-01-07T11:36:06;9.40;;;6.43;;
74102;SDS011;62853;46.166;3.640;2024-01-07T11:38:33;9.63;;;7.43;;
74102;SDS011;62853;46.166;3.640;2024-01-07T11:41:00;8.93;;;7.03;;
74102;SDS011;62853;46.166;3.640;2024-01-07T11:43:28;9.77;;;6.82;;
74102;SDS011;62853;46.166;3.640;2024-01-07T11:45:54;10.23;;;6.93;;
74102;SDS011;62853;46.166;3.640;2024-01-07T11:48:20;9.93;;;6.70;;
74102;SDS011;62853;46.166;3.640;2024-01-07T11:50:45;9.13;;;7.20;;
74102;SDS011;62853;46.166;3.640;2024-01-07T11:53:11;7.97;;;6.80;;
74102;SDS011;62853;46.166;3.640;2024-01-07T11:55:37;9.75;;;7.10;;
74102;SDS011;62853;46.166;3.640;2024-01-07T11:58:03;9.65;;;6.90;;
74102;SDS011;62853;46.166;3.640;2024-01-07T12:00:32;8.82;;;6.75;;
74102;SDS011;62853;46.166;3.640;2024-01-07T12:02:59;8.45;;;6.85;;
74102;SDS011;62853;46.166;3.640;2024-01-07T12:05:28;9.68;;;6.82;;
74102;SDS011;62853;46.166;3.640;2024-01-07T12:07:54;8.68;;;6.85;;
74102;SDS011;62853;46.166;3.640;2024-01-07T12:10:20;8.55;;;6.60;;
74102;SDS011;62853;46.166;3.640;2024-01-07T12:12:46;8.60;;;6.35;;
74102;SDS011;62853;46.166;3.640;2024-01-07T12:15:12;9.73;;;6.85;;
74102;SDS011;62853;46.166;3.640;2024-01-07T12:17:38;8.57;;;6.78;;
74102;SDS011;62853;46.166;3.640;2024-01-07T12:20:04;10.05;;;6.88;;
74102;SDS011;62853;46.166;3.640;2024-01-07T12:22:32;9.00;;;6.90;;
74102;SDS011;62853;46.166;3.640;2024-01-07T12:25:04;9.38;;;7.45;;
74102;SDS011;62853;46.166;3.640;2024-01-07T12:27:31;8.90;;;6.95;;
74102;SDS011;62853;46.166;3.640;2024-01-07T12:29:58;10.07;;;7.38;;
74102;SDS011;62853;46.166;3.640;2024-01-07T12:32:27;8.88;;;7.28;;
74102;SDS011;62853;46.166;3.640;2024-01-07T12:34:53;9.27;;;7.10;;
74102;SDS011;62853;46.166;3.640;2024-01-07T12:37:18;8.77;;;6.82;;
74102;SDS011;62853;46.166;3.640;2024-01-07T12:39:44;9.50;;;7.30;;
74102;SDS011;62853;46.166;3.640;2024-01-07T12:42:09;10.23;;;7.32;;
74102;SDS011;62853;46.166;3.640;2024-01-07T12:44:37;8.85;;;6.82;;
74102;SDS011;62853;46.166;3.640;2024-01-07T12:47:03;8.82;;;7.30;;
74102;SDS011;62853;46.166;3.640;2024-01-07T12:49:29;9.10;;;6.53;;
74102;SDS011;62853;46.166;3.640;2024-01-07T12:51:54;8.88;;;6.47;;
74102;SDS011;62853;46.166;3.640;2024-01-07T12:54:20;8.23;;;6.55;;
74102;SDS011;62853;46.166;3.640;2024-01-07T12:56:46;8.88;;;6.43;;
74102;SDS011;62853;46.166;3.640;2024-01-07T12:59:12;8.93;;;6.45;;
74102;SDS011;62853;46.166;3.640;2024-01-07T13:01:37;9.07;;;6.53;;
74102;SDS011;62853;46.166;3.640;2024-01-07T13:04:02;8.45;;;6.55;;
74102;SDS011;62853;46.166;3.640;2024-01-07T13:06:28;8.48;;;6.32;;
74102;SDS011;62853;46.166;3.640;2024-01-07T13:08:54;8.70;;;6.25;;
74102;SDS011;62853;46.166;3.640;2024-01-07T13:11:19;8.18;;;6.00;;
74102;SDS011;62853;46.166;3.640;2024-01-07T13:13:45;7.40;;;6.28;;
74102;SDS011;62853;46.166;3.640;2024-01-07T13:16:11;8.23;;;6.22;;
74102;SDS011;62853;46.166;3.640;2024-01-07T13:18:37;8.90;;;6.75;;
74102;SDS011;62853;46.166;3.640;2024-01-07T13:21:02;9.85;;;6.55;;
74102;SDS011;62853;46.166;3.640;2024-01-07T13:23:28;9.15;;;6.47;;
74102;SDS011;62853;46.166;3.640;2024-01-07T13:25:54;7.68;;;6.28;;
74102;SDS011;62853;46.166;3.640;2024-01-07T13:28:20;8.93;;;6.90;;
74102;SDS011;62853;46.166;3.640;2024-01-07T13:30:45;7.65;;;6.47;;
74102;SDS011;62853;46.166;3.640;2024-01-07T13:33:11;7.75;;;6.13;;
74102;SDS011;62853;46.166;3.640;2024-01-07T13:35:36;7.03;;;5.95;;
74102;SDS011;62853;46.166;3.640;2024-01-07T13:38:02;6.93;;;6.07;;
74102;SDS011;62853;46.166;3.640;2024-01-07T13:40:27;7.55;;;6.00;;
74102;SDS011;62853;46.166;3.640;2024-01-07T13:42:53;9.18;;;6.30;;
74102;SDS011;62853;46.166;3.640;2024-01-07T13:45:19;6.68;;;5.72;;
74102;SDS011;62853;46.166;3.640;2024-01-07T13:47:48;7.82;;;6.30;;
74102;SDS011;62853;46.166;3.640;2024-01-07T13:50:14;8.43;;;6.53;;
74102;SDS011;62853;46.166;3.640;2024-01-07T13:52:39;7.55;;;5.90;;
74102;SDS011;62853;46.166;3.640;2024-01-07T13:55:06;6.50;;;5.60;;
74102;SDS011;62853;46.166;3.640;2024-01-07T13:57:34;7.10;;;5.90;;
74102;SDS011;62853;46.166;3.640;2024-01-07T14:00:00;6.65;;;5.60;;
74102;SDS011;62853;46.166;3.640;2024-01-07T14:02:25;5.90;;;5.30;;
74102;SDS011;62853;46.166;3.640;2024-01-07T14:04:51;7.13;;;5.40;;
74102;SDS011;62853;46.166;3.640;2024-01-07T14:07:16;7.20;;;5.35;;
74102;SDS011;62853;46.166;3.640;2024-01-07T14:09:42;6.22;;;5.03;;
74102;SDS011;62853;46.166;3.640;2024-01-07T14:12:07;6.75;;;4.72;;
74102;SDS011;62853;46.166;3.640;2024-01-07T14:14:33;6.18;;;4.75;;
74102;SDS011;62853;46.166;3.640;2024-01-07T14:16:58;5.85;;;4.63;;
74102;SDS011;62853;46.166;3.640;2024-01-07T14:19:24;6.63;;;5.00;;
74102;SDS011;62853;46.166;3.640;2024-01-07T14:21:49;6.70;;;4.30;;
74102;SDS011;62853;46.166;3.640;2024-01-07T14:24:14;6.07;;;4.40;;
74102;SDS011;62853;46.166;3.640;2024-01-07T14:26:40;5.45;;;4.47;;
74102;SDS011;62853;46.166;3.640;2024-01-07T14:29:05;6.28;;;4.60;;
74102;SDS011;62853;46.166;3.640;2024-01-07T14:31:31;5.60;;;4.32;;
74102;SDS011;62853;46.166;3.640;2024-01-07T14:33:56;4.95;;;4.28;;
74102;SDS011;62853;46.166;3.640;2024-01-07T14:36:21;5.82;;;4.65;;
74102;SDS011;62853;46.166;3.640;2024-01-07T14:38:48;5.65;;;4.18;;